LRCV - CRAIOVA

Compiled: 21:32:05 on 19/01/2018

Latest METAR/SPECI Reports

METAR LRCV 192130Z AUTO 11003KT 030V130 FEW070/// 02/M02 Q1010=

Previous reports

METAR LRCV 192100Z AUTO 11003KT SCT065/// BKN080/// 03/M02 Q1009=
METAR LRCV 192030Z AUTO 13004KT BKN065/// BKN085/// 02/M01 Q1009=
METAR LRCV 192000Z AUTO 02002KT OVC075/// 01/M02 Q1010=
METAR LRCV 191930Z AUTO 12003KT FEW065/// SCT085/// 01/M02 Q1009=

Latest TAF report

TAF LRCV 191400Z 1915/1924 25008KT CAVOK=

Valid WARNINGS

No valid warnings for LRCV